Time;durP1;ratioP1;P1;durP2;ratioP2;P2;SDS_P1;SDS_P2;PMS_P1;PMS_P2;Temp;Humidity;BMP_temperature;BMP_pressure;BME280_temperature;BME280_humidity;BME280_pressure;Samples;Min_cycle;Max_cycle;Signal;HPM_P1;HPM_P2
2022/09/28 00:08:12;;;;;;;4.93;0.90;;;9.20;99.90;;;;;;20995939;28;20458;-74
2022/09/28 00:18:13;;;;;;;5.25;0.98;;;9.20;99.90;;;;;;20995093;28;20047;-74
2022/09/28 00:28:13;;;;;;;3.37;0.87;;;9.10;99.90;;;;;;20994251;28;20064;-75
2022/09/28 00:38:15;;;;;;;6.43;1.40;;;9.10;99.90;;;;;;20993492;28;20043;-75
2022/09/28 00:48:16;;;;;;;4.97;1.50;;;9.20;99.90;;;;;;20992516;28;20040;-75
2022/09/28 00:58:26;;;;;;;4.07;1.57;;;9.20;99.90;;;;;;20974121;28;20037;-75
2022/09/28 01:08:29;;;;;;;5.45;1.30;;;9.20;99.90;;;;;;20973360;28;20041;-76
2022/09/28 01:18:50;;;;;;;4.18;1.23;;;9.20;99.90;;;;;;20972955;28;20502;-76
2022/09/28 01:29:17;;;;;;;3.47;1.35;;;9.20;99.90;;;;;;20973158;28;20087;-76
2022/09/28 01:39:35;;;;;;;4.97;1.92;;;9.20;99.90;;;;;;20944994;28;20098;-76
2022/09/28 01:49:44;;;;;;;4.30;1.63;;;9.20;99.90;;;;;;20966423;22;20060;-78
2022/09/28 01:59:59;;;;;;;4.03;1.58;;;9.20;99.90;;;;;;20916939;28;20036;-80
2022/09/28 02:10:11;;;;;;;9.25;1.58;;;9.20;99.90;;;;;;20913957;28;20037;-80
2022/09/28 02:20:14;;;;;;;2.33;1.27;;;9.20;99.90;;;;;;20922800;28;20491;-80
2022/09/28 02:30:16;;;;;;;4.57;1.00;;;9.10;99.90;;;;;;20909619;28;20523;-79
2022/09/28 02:40:24;;;;;;;2.85;0.88;;;9.20;99.90;;;;;;20925303;28;20135;-78
2022/09/28 02:50:32;;;;;;;2.35;0.90;;;9.10;99.90;;;;;;20906516;28;20469;-78
2022/09/28 03:00:43;;;;;;;2.22;1.02;;;9.10;99.90;;;;;;20906523;28;20041;-79
2022/09/28 03:11:13;;;;;;;1.53;1.20;;;9.10;99.90;;;;;;20905765;28;20087;-80
2022/09/28 03:21:14;;;;;;;1.58;1.20;;;9.00;99.90;;;;;;20901190;28;20048;-80
2022/09/28 03:31:15;;;;;;;2.33;1.33;;;9.10;99.90;;;;;;20920293;28;20506;-78
2022/09/28 03:41:16;;;;;;;2.23;1.17;;;9.10;99.90;;;;;;20921283;28;20136;-78
2022/09/28 03:51:17;;;;;;;1.88;1.35;;;9.10;99.90;;;;;;20920093;28;20037;-79
2022/09/28 04:01:18;;;;;;;1.87;1.10;;;9.10;99.90;;;;;;20924290;28;20456;-77
2022/09/28 04:11:21;;;;;;;3.65;1.30;;;9.00;99.90;;;;;;20922906;28;20040;-78
2022/09/28 04:21:21;;;;;;;3.70;2.03;;;9.10;99.90;;;;;;20890164;28;20073;-78
2022/09/28 04:31:29;;;;;;;3.40;2.30;;;9.10;99.90;;;;;;20833561;28;20048;-79
2022/09/28 04:41:30;;;;;;;3.42;1.50;;;9.20;99.90;;;;;;20817632;28;20045;-79
2022/09/28 04:51:31;;;;;;;1.63;1.30;;;9.20;99.90;;;;;;20835723;28;20049;-79
2022/09/28 05:01:32;;;;;;;2.95;1.50;;;9.20;99.90;;;;;;20833767;28;20041;-79
2022/09/28 05:11:33;;;;;;;2.37;1.67;;;9.20;99.90;;;;;;20837237;28;20041;-78
2022/09/28 05:21:34;;;;;;;5.43;2.67;;;9.20;99.90;;;;;;20831448;28;20065;-80
2022/09/28 05:31:36;;;;;;;5.43;2.53;;;9.20;99.90;;;;;;20832794;28;20049;-77
2022/09/28 05:41:46;;;;;;;6.75;2.95;;;9.30;99.90;;;;;;20864080;28;20518;-77
2022/09/28 05:51:47;;;;;;;5.63;2.83;;;9.30;99.90;;;;;;20898519;28;20113;-79
2022/09/28 06:01:48;;;;;;;8.77;3.33;;;9.30;99.90;;;;;;20876573;28;20048;-78
2022/09/28 06:11:50;;;;;;;36.40;5.67;;;9.40;99.90;;;;;;20907259;28;20033;-79
2022/09/28 06:21:57;;;;;;;8.20;4.93;;;9.40;99.90;;;;;;20976020;28;20041;-80
2022/09/28 06:31:58;;;;;;;9.63;4.95;;;9.50;99.90;;;;;;20989293;28;20456;-78
2022/09/28 06:42:02;;;;;;;6.67;4.30;;;9.50;99.90;;;;;;21010879;28;20055;-79
2022/09/28 06:52:12;;;;;;;6.57;3.25;;;9.60;99.90;;;;;;20996919;28;20871;-80
2022/09/28 07:02:31;;;;;;;5.53;2.67;;;9.50;99.90;;;;;;21024585;28;20127;-79
2022/09/28 07:12:51;;;;;;;4.63;2.70;;;9.60;99.90;;;;;;21013010;28;20048;-80
2022/09/28 07:23:07;;;;;;;13.13;4.55;;;9.70;99.90;;;;;;20989993;28;20037;-80
2022/09/28 07:33:31;;;;;;;10.15;4.43;;;9.80;99.90;;;;;;21022579;28;20064;-81
2022/09/28 07:43:48;;;;;;;8.38;3.20;;;9.90;99.90;;;;;;21004373;28;20067;-79
2022/09/28 07:53:52;;;;;;;6.60;3.88;;;10.00;99.90;;;;;;20948045;22;20060;-77
2022/09/28 08:03:55;;;;;;;12.93;5.78;;;10.10;99.90;;;;;;20915438;28;20029;-76
2022/09/28 08:13:58;;;;;;;11.32;4.72;;;10.20;99.90;;;;;;20896269;28;20040;-77
2022/09/28 08:24:29;;;;;;;8.25;3.72;;;10.30;99.90;;;;;;20899009;28;20040;-76
2022/09/28 08:34:31;;;;;;;8.50;2.42;;;10.20;99.90;;;;;;20880486;28;20044;-77
2022/09/28 08:44:56;;;;;;;5.30;1.73;;;10.30;99.90;;;;;;20912247;28;20506;-78
2022/09/28 08:55:29;;;;;;;4.28;1.95;;;10.40;99.90;;;;;;20809748;28;20063;-79
2022/09/28 09:06:05;;;;;;;6.25;2.25;;;10.80;99.90;;;;;;20917546;28;20045;-77
2022/09/28 09:17:06;;;;;;;4.43;1.23;;;10.90;99.90;;;;;;20931400;28;20506;-76
2022/09/28 09:27:54;;;;;;;2.78;1.02;;;11.10;99.90;;;;;;20950956;28;20119;-77
2022/09/28 09:38:36;;;;;;;1.63;0.63;;;11.20;99.90;;;;;;20900427;28;20043;-77
2022/09/28 09:49:12;;;;;;;4.47;1.50;;;11.30;99.90;;;;;;20899843;28;20036;-77
2022/09/28 09:59:24;;;;;;;2.38;0.93;;;11.70;99.90;;;;;;20893384;28;20526;-77
2022/09/28 10:09:44;;;;;;;3.67;1.10;;;11.80;99.90;;;;;;20972277;28;20040;-78
2022/09/28 10:19:56;;;;;;;7.07;2.65;;;11.90;99.90;;;;;;20905696;28;20087;-77
2022/09/28 10:30:23;;;;;;;5.55;1.70;;;11.70;99.90;;;;;;20907141;28;20060;-75
2022/09/28 10:40:45;;;;;;;5.80;1.45;;;11.70;99.90;;;;;;20938180;28;20036;-76
2022/09/28 10:51:05;;;;;;;3.60;1.13;;;11.70;99.90;;;;;;20986024;28;20041;-77
2022/09/28 11:01:15;;;;;;;1.10;0.40;;;11.90;99.90;;;;;;20989915;28;20044;-77
2022/09/28 11:11:20;;;;;;;4.82;1.02;;;11.70;99.90;;;;;;20986451;28;20037;-77
2022/09/28 11:21:33;;;;;;;0.85;0.40;;;11.70;99.90;;;;;;20899242;28;20140;-76
2022/09/28 11:31:38;;;;;;;4.82;0.80;;;11.30;99.90;;;;;;20900786;28;20044;-77
2022/09/28 11:41:50;;;;;;;4.18;0.77;;;11.30;99.90;;;;;;20958490;28;20047;-76
2022/09/28 11:51:55;;;;;;;2.63;1.92;;;10.90;99.90;;;;;;20896978;28;20128;-77
2022/09/28 12:02:09;;;;;;;2.40;1.08;;;11.00;99.90;;;;;;20896904;28;20527;-76
2022/09/28 12:12:38;;;;;;;4.00;1.13;;;11.00;99.90;;;;;;20907584;28;20521;-77
2022/09/28 12:22:53;;;;;;;4.93;1.45;;;10.80;99.90;;;;;;20895242;28;20442;-77
2022/09/28 12:33:20;;;;;;;2.67;1.17;;;10.50;99.90;;;;;;20927596;28;20111;-76
2022/09/28 12:43:32;;;;;;;10.00;2.80;;;10.30;99.90;;;;;;20977136;28;20045;-75
2022/09/28 12:53:54;;;;;;;18.88;5.15;;;10.20;99.90;;;;;;20946883;28;20039;-76
2022/09/28 13:04:34;;;;;;;5.10;1.98;;;10.10;99.90;;;;;;20896106;28;20041;-76
2022/09/28 13:14:34;;;;;;;7.43;1.33;;;10.10;99.90;;;;;;20895976;28;20063;-76
2022/09/28 13:24:40;;;;;;;4.03;1.87;;;10.10;99.90;;;;;;20965437;28;20032;-75
2022/09/28 13:34:42;;;;;;;6.88;2.45;;;10.00;99.90;;;;;;20930474;28;20449;-77
2022/09/28 13:45:10;;;;;;;2.38;1.38;;;10.00;99.90;;;;;;20941454;28;20037;-73
2022/09/28 13:55:36;;;;;;;4.05;1.77;;;10.00;99.90;;;;;;21053514;23;20051;-78
2022/09/28 14:05:45;;;;;;;4.10;1.80;;;9.90;99.90;;;;;;21075535;28;20120;-79
2022/09/28 14:15:46;;;;;;;2.28;1.52;;;9.90;99.90;;;;;;21006253;28;20064;-79
2022/09/28 14:26:29;;;;;;;3.87;1.40;;;9.90;99.90;;;;;;21021829;28;20025;-78
2022/09/28 14:47:31;;;;;;;8.60;2.15;;;10.10;99.90;;;;;;20997088;28;19962;-79
2022/09/28 14:57:32;;;;;;;7.60;2.15;;;10.00;99.90;;;;;;20998192;28;20178;-79
2022/09/28 15:07:46;;;;;;;5.33;2.20;;;10.00;99.90;;;;;;21017460;28;20044;-76
2022/09/28 15:17:55;;;;;;;6.57;3.08;;;10.00;99.90;;;;;;20998735;28;20052;-80
2022/09/28 15:28:01;;;;;;;5.13;1.95;;;10.10;99.90;;;;;;20994153;28;20037;-80
2022/09/28 15:38:03;;;;;;;3.00;1.52;;;10.10;99.90;;;;;;21031557;28;20457;-80
2022/09/28 15:48:51;;;;;;;7.13;2.03;;;10.00;99.90;;;;;;21014035;28;20461;-80
2022/09/28 15:59:21;;;;;;;3.90;2.10;;;9.80;99.90;;;;;;20675349;28;20731;-79
2022/09/28 16:09:33;;;;;;;11.02;2.97;;;9.70;99.90;;;;;;20674146;28;20142;-80
2022/09/28 16:19:36;;;;;;;4.93;2.47;;;9.70;99.90;;;;;;20659969;28;20061;-79
2022/09/28 16:29:40;;;;;;;5.60;2.10;;;9.70;99.90;;;;;;20955098;28;20116;-79
2022/09/28 16:39:41;;;;;;;4.65;1.60;;;9.60;99.90;;;;;;21011935;28;20064;-79
2022/09/28 16:49:42;;;;;;;6.33;2.20;;;9.50;99.90;;;;;;21007200;28;20036;-79
2022/09/28 16:59:43;;;;;;;6.13;2.30;;;9.50;99.90;;;;;;21006404;28;20100;-79
2022/09/28 17:09:43;;;;;;;10.00;3.43;;;9.50;99.90;;;;;;21005541;28;20064;-78
2022/09/28 17:19:44;;;;;;;6.20;3.43;;;9.50;99.90;;;;;;20931470;28;20106;-79
2022/09/28 17:29:45;;;;;;;7.53;4.33;;;9.50;99.90;;;;;;20909219;28;20049;-79
2022/09/28 17:39:46;;;;;;;7.27;3.23;;;9.40;99.90;;;;;;20993018;28;20517;-80
2022/09/28 17:49:47;;;;;;;15.23;5.50;;;9.30;99.90;;;;;;21091264;28;20036;-79
2022/09/28 17:59:49;;;;;;;6.93;2.85;;;9.40;99.90;;;;;;21089906;28;20048;-79
2022/09/28 18:09:55;;;;;;;10.32;2.50;;;9.30;99.90;;;;;;21089523;28;20040;-79
2022/09/28 18:19:56;;;;;;;13.23;7.15;;;9.40;99.90;;;;;;21011773;28;20171;-80
2022/09/28 18:29:56;;;;;;;16.33;8.33;;;9.40;99.90;;;;;;20987249;28;20040;-80
2022/09/28 18:39:58;;;;;;;12.40;4.20;;;9.40;99.90;;;;;;21017627;28;20043;-79
2022/09/28 18:49:58;;;;;;;6.20;2.37;;;9.20;99.90;;;;;;21004477;28;20529;-81
2022/09/28 19:00:00;;;;;;;7.47;3.60;;;9.20;99.90;;;;;;20989645;28;20083;-80
2022/09/28 19:10:01;;;;;;;5.28;3.25;;;9.20;99.90;;;;;;21017276;28;20571;-80
2022/09/28 19:20:02;;;;;;;8.37;3.60;;;9.30;99.90;;;;;;21080687;28;20044;-80
2022/09/28 19:30:03;;;;;;;6.32;3.47;;;9.30;99.90;;;;;;21093987;28;20048;-79
2022/09/28 19:40:05;;;;;;;8.73;3.88;;;9.20;99.90;;;;;;21048899;28;20029;-79
2022/09/28 19:50:06;;;;;;;;;;;9.10;99.90;;;;;;21012449;22;20045;-75
2022/09/28 20:00:07;;;;;;;7.93;4.68;;;9.00;99.90;;;;;;20972691;28;19959;-74
2022/09/28 20:10:10;;;;;;;7.63;3.50;;;8.90;99.90;;;;;;20915077;28;20049;-74
2022/09/28 20:20:11;;;;;;;10.60;4.32;;;8.90;99.90;;;;;;21040637;28;20044;-74
2022/09/28 20:30:12;;;;;;;7.83;4.67;;;8.80;99.90;;;;;;21028279;28;20032;-74
2022/09/28 20:40:13;;;;;;;;;;;8.70;99.90;;;;;;21043692;28;20044;-74
2022/09/28 20:50:14;;;;;;;11.63;6.57;;;8.80;99.90;;;;;;20997765;28;20004;-73
2022/09/28 21:00:15;;;;;;;10.20;6.27;;;8.70;99.90;;;;;;20994307;28;20041;-74
2022/09/28 21:10:16;;;;;;;13.83;6.53;;;8.80;99.90;;;;;;20975476;28;20283;-73
2022/09/28 21:20:17;;;;;;;11.40;5.97;;;8.80;99.90;;;;;;20996849;28;20040;-73
2022/09/28 21:30:18;;;;;;;9.47;5.73;;;8.80;99.90;;;;;;21002657;28;20032;-73
2022/09/28 21:40:20;;;;;;;8.13;4.88;;;8.80;99.90;;;;;;21017589;28;20054;-74
2022/09/28 21:50:25;;;;;;;9.30;5.45;;;8.70;99.90;;;;;;21034713;28;20036;-74
2022/09/28 22:00:26;;;;;;;9.52;4.93;;;8.80;99.90;;;;;;21028810;28;20068;-74
2022/09/28 22:10:26;;;;;;;6.97;4.67;;;8.80;99.90;;;;;;21029467;28;20483;-74
2022/09/28 22:20:27;;;;;;;9.97;5.40;;;8.70;99.90;;;;;;21003000;28;20044;-74
2022/09/28 22:30:28;;;;;;;13.97;7.10;;;8.70;99.90;;;;;;21006436;28;20048;-74
2022/09/28 22:40:29;;;;;;;14.13;6.27;;;8.70;99.90;;;;;;21044785;28;20496;-74
2022/09/28 22:50:30;;;;;;;10.03;6.87;;;8.80;99.90;;;;;;21038728;28;20037;-74
2022/09/28 23:00:31;;;;;;;17.00;9.32;;;8.80;99.90;;;;;;21046712;28;20502;-75
2022/09/28 23:10:31;;;;;;;18.17;9.47;;;8.70;99.90;;;;;;21043231;28;20064;-74
2022/09/28 23:20:32;;;;;;;19.43;9.93;;;8.70;99.90;;;;;;21041690;28;20086;-75
2022/09/28 23:30:33;;;;;;;19.00;9.77;;;8.80;99.90;;;;;;21038512;28;20044;-76
2022/09/28 23:40:34;;;;;;;17.63;8.53;;;8.80;99.90;;;;;;21030758;28;20383;-75
2022/09/28 23:50:35;;;;;;;17.23;8.70;;;8.80;99.90;;;;;;21042848;28;20114;-75
